»·PEaware :: GAJ850 KLAS-KMRY

GAJ850 :: KLAS-KMRY

FLIGHT INFORMATION

Flight Status: Arrived
Operator: Unknown
More flights by this operator :: More flights under this callsign
Pilot: Todd T. (13067)
Aircraft: BEECH AIRCRAFT SUPER KING AIR 350
(B350)
More flights by this aircraft type
Origin: KLAS McCarran Intl
United States
Destination: KMRY Monterey Peninsula
United States
More flights between these airports :: More routes between these airports
Route: +V105 LIDAT BIH PXN SNS
File this flight plan on PilotEdge
Remarks:
Altitude:
(Current/Filed)
25,000ft
Speed:
(Current/Filed)
260kts
Departed: 11-Jul-19 02:34 PM
Arrived: 11-Jul-19 04:18 PM
Distance/Time
Traveled:
325nm/1:44
Distance/Time
To Go:
Arrived

Flight Plot

Page will automatically refresh every two minutes.

Flight plan parsing failed; only flown route is shown


Map Options




Map Legend


Flown Route
Filed Route
Departure Airport
Arrival Airport
Navaid (VOR, NDB)
Fix

Horizontal Profiles

Position Reports

Time Latitude Longitude Heading Altitude Ground
Speed
11-Jul-19 14:09 36.088079 -115.166355 359 2116ft 0kts
11-Jul-19 14:10 36.088079 -115.166355 360 2116ft 0kts
11-Jul-19 14:11 36.088079 -115.166355 360 2116ft 0kts
11-Jul-19 14:12 36.088079 -115.166355 359 2116ft 0kts
11-Jul-19 14:13 36.088079 -115.166355 0 2116ft 0kts
11-Jul-19 14:14 36.088079 -115.166355 359 2116ft 0kts
11-Jul-19 14:15 36.088079 -115.166355 359 2116ft 0kts
11-Jul-19 14:16 36.088079 -115.166355 360 2116ft 0kts
11-Jul-19 14:17 36.088079 -115.166355 360 2116ft 0kts
11-Jul-19 14:18 36.088079 -115.166355 0 2116ft 0kts
11-Jul-19 14:20 36.088079 -115.166355 359 2116ft 0kts
11-Jul-19 14:21 36.088079 -115.166355 0 2116ft 0kts
11-Jul-19 14:22 36.088079 -115.166355 360 2116ft 0kts
11-Jul-19 14:23 36.088079 -115.166355 359 2116ft 0kts
11-Jul-19 14:24 36.088079 -115.166355 0 2116ft 0kts
11-Jul-19 14:25 36.088079 -115.166355 0 2116ft 0kts
11-Jul-19 14:26 36.088079 -115.166355 0 2116ft 0kts
11-Jul-19 14:27 36.088079 -115.166355 359 2116ft 0kts
11-Jul-19 14:28 36.089293 -115.165618 66 2116ft 7kts
11-Jul-19 14:29 36.090871 -115.163850 23 2116ft 12kts
11-Jul-19 14:30 36.094645 -115.161708 24 2116ft 15kts
11-Jul-19 14:31 36.098741 -115.159384 26 2116ft 16kts
11-Jul-19 14:32 36.099861 -115.157533 87 2116ft 0kts
11-Jul-19 14:33 36.099050 -115.156800 204 2116ft 13kts
11-Jul-19 14:34 36.068046 -115.171331 187 3003ft 159kts
11-Jul-19 14:35 36.026351 -115.179420 187 5442ft 159kts
11-Jul-19 14:36 35.990619 -115.211110 230 7607ft 168kts
11-Jul-19 14:37 35.962051 -115.257014 231 8864ft 171kts
11-Jul-19 14:37 35.940029 -115.297898 264 9776ft 177kts
11-Jul-19 14:39 35.947049 -115.368462 277 11016ft 179kts
11-Jul-19 14:40 35.954933 -115.429288 276 11997ft 180kts
11-Jul-19 14:40 35.961536 -115.480619 276 12768ft 182kts
11-Jul-19 14:42 35.970855 -115.553322 276 13836ft 184kts
11-Jul-19 14:42 35.977557 -115.605829 276 14590ft 186kts
11-Jul-19 14:43 35.985629 -115.669325 276 15486ft 188kts
11-Jul-19 14:45 35.995128 -115.744422 276 16521ft 190kts
11-Jul-19 14:45 36.001960 -115.798719 276 17260ft 192kts
11-Jul-19 14:46 36.010253 -115.864830 276 18146ft 194kts
11-Jul-19 14:48 36.019972 -115.942697 276 19153ft 197kts
11-Jul-19 14:48 36.026982 -115.998973 278 19841ft 199kts
11-Jul-19 14:49 36.067335 -116.046795 321 20650ft 206kts
11-Jul-19 14:50 36.113308 -116.090369 321 21422ft 208kts
11-Jul-19 14:51 36.159687 -116.134264 321 22165ft 210kts
11-Jul-19 14:52 36.206613 -116.178734 321 22880ft 212kts
11-Jul-19 14:53 36.254025 -116.223734 321 23522ft 216kts
11-Jul-19 14:54 36.301873 -116.269216 321 24065ft 221kts
11-Jul-19 14:55 36.352528 -116.317440 321 24055ft 232kts
11-Jul-19 14:56 36.404252 -116.366770 321 24054ft 234kts
11-Jul-19 14:57 36.455986 -116.416198 321 24054ft 234kts
11-Jul-19 14:58 36.507713 -116.465707 321 24054ft 234kts
11-Jul-19 14:59 36.559532 -116.515388 321 24054ft 234kts
11-Jul-19 15:00 36.610951 -116.564770 321 24054ft 234kts
11-Jul-19 15:01 36.662575 -116.614436 321 24058ft 242kts
11-Jul-19 15:02 36.716757 -116.666648 320 24057ft 248kts
11-Jul-19 15:03 36.771850 -116.719842 320 24057ft 253kts
11-Jul-19 15:04 36.829645 -116.771825 324 24069ft 256kts
11-Jul-19 15:05 36.889233 -116.821654 325 24129ft 257kts
11-Jul-19 15:06 36.948836 -116.871551 325 24220ft 256kts
11-Jul-19 15:07 37.008096 -116.921249 324 24258ft 258kts
11-Jul-19 15:08 37.068024 -116.971609 324 24257ft 260kts
11-Jul-19 15:09 37.128292 -117.022356 324 24254ft 261kts
11-Jul-19 15:10 37.188862 -117.073453 324 24249ft 262kts
11-Jul-19 15:11 37.249481 -117.124698 325 24236ft 263kts
11-Jul-19 15:12 37.310632 -117.176483 325 24236ft 264kts
11-Jul-19 15:13 37.371625 -117.228245 325 24237ft 264kts
11-Jul-19 15:14 37.426175 -117.287414 283 24246ft 257kts
11-Jul-19 15:15 37.425615 -117.377196 265 24235ft 256kts
11-Jul-19 15:16 37.421633 -117.467782 265 24194ft 259kts
11-Jul-19 15:17 37.417435 -117.558659 265 24152ft 260kts
11-Jul-19 15:18 37.413129 -117.650167 265 24126ft 260kts
11-Jul-19 15:19 37.409143 -117.733559 265 24127ft 260kts
11-Jul-19 15:20 37.404727 -117.824531 265 24127ft 259kts
11-Jul-19 15:21 37.400240 -117.915512 265 24127ft 259kts
11-Jul-19 15:22 37.395692 -118.006328 265 24127ft 259kts
11-Jul-19 15:23 37.391097 -118.096674 265 24127ft 259kts
11-Jul-19 15:24 37.386426 -118.187172 265 24127ft 259kts
11-Jul-19 15:25 37.381666 -118.278030 265 24127ft 259kts
11-Jul-19 15:26 37.377062 -118.362838 259 23848ft 227kts
11-Jul-19 15:27 37.358766 -118.435731 250 23355ft 217kts
11-Jul-19 15:28 37.338583 -118.512677 250 21821ft 242kts
11-Jul-19 15:29 37.316684 -118.595785 250 20267ft 257kts
11-Jul-19 15:30 37.293978 -118.681635 250 18704ft 264kts
11-Jul-19 15:31 37.271148 -118.767680 249 18212ft 229kts
11-Jul-19 15:32 37.251304 -118.842134 249 18189ft 217kts
11-Jul-19 15:33 37.232294 -118.913302 248 18188ft 212kts
11-Jul-19 15:34 37.213471 -118.983600 248 18200ft 211kts
11-Jul-19 15:35 37.194733 -119.053383 247 18229ft 208kts
11-Jul-19 15:36 37.176331 -119.121708 247 18304ft 206kts
11-Jul-19 15:37 37.157712 -119.190698 247 18221ft 210kts
11-Jul-19 15:38 37.138380 -119.262136 248 18117ft 222kts
11-Jul-19 15:39 37.117917 -119.337572 248 18038ft 230kts
11-Jul-19 15:40 37.097048 -119.414256 248 18035ft 232kts
11-Jul-19 15:41 37.076111 -119.490966 249 18035ft 232kts
11-Jul-19 15:42 37.055110 -119.567682 249 18034ft 232kts
11-Jul-19 15:43 37.034039 -119.644429 249 18034ft 231kts
11-Jul-19 15:44 37.012908 -119.721162 249 18035ft 231kts
11-Jul-19 15:45 36.991867 -119.797359 250 18036ft 231kts
11-Jul-19 15:46 36.970664 -119.873923 250 18039ft 231kts
11-Jul-19 15:47 36.949193 -119.951252 250 17466ft 248kts
11-Jul-19 15:48 36.925263 -120.037209 250 16026ft 271kts
11-Jul-19 15:49 36.901641 -120.121717 250 15896ft 241kts
11-Jul-19 15:50 36.880187 -120.198218 250 15900ft 223kts
11-Jul-19 15:51 36.857976 -120.277246 250 14548ft 253kts
11-Jul-19 15:52 36.833836 -120.362916 250 13073ft 265kts
11-Jul-19 15:53 36.809093 -120.450393 250 11558ft 260kts
11-Jul-19 15:54 36.785565 -120.533275 250 10048ft 250kts
11-Jul-19 15:55 36.764228 -120.608189 250 9890ft 208kts
11-Jul-19 15:56 36.745233 -120.674709 250 9902ft 202kts
11-Jul-19 15:57 36.724129 -120.740736 241 9906ft 203kts
11-Jul-19 15:58 36.696703 -120.802853 241 9910ft 204kts
11-Jul-19 15:59 36.669121 -120.865482 241 9920ft 205kts
11-Jul-19 16:00 36.641554 -120.928254 241 9929ft 205kts
11-Jul-19 16:01 36.614154 -120.990812 241 8980ft 206kts
11-Jul-19 16:02 36.588113 -121.054645 253 7483ft 206kts
11-Jul-19 16:03 36.570742 -121.122514 252 6016ft 211kts
11-Jul-19 16:04 36.552937 -121.189399 252 5943ft 194kts
11-Jul-19 16:05 36.536263 -121.251597 252 5951ft 184kts
11-Jul-19 16:06 36.520059 -121.311895 252 5956ft 180kts
11-Jul-19 16:07 36.503933 -121.371796 252 5961ft 183kts
11-Jul-19 16:08 36.487568 -121.432442 252 5962ft 185kts
11-Jul-19 16:09 36.471331 -121.493348 261 5961ft 186kts
11-Jul-19 16:10 36.487188 -121.550605 290 5275ft 165kts
11-Jul-19 16:11 36.506569 -121.607005 290 4537ft 171kts
11-Jul-19 16:12 36.523464 -121.654166 291 3917ft 133kts
11-Jul-19 16:13 36.539095 -121.698673 314 2854ft 124kts
11-Jul-19 16:14 36.553662 -121.737189 290 2349ft 128kts
11-Jul-19 16:15 36.564885 -121.779379 289 1396ft 126kts
11-Jul-19 16:16 36.577801 -121.817322 292 591ft 108kts
11-Jul-19 16:17 36.587449 -121.845609 294 168ft 28kts
11-Jul-19 16:18 36.586776 -121.847927 196 168ft 0kts
11-Jul-19 16:19 36.586776 -121.847927 196 168ft 0kts
11-Jul-19 16:20 36.586776 -121.847927 196 168ft 0kts
11-Jul-19 16:21 36.586777 -121.847927 196 168ft 0kts

Navigation Log

Ident Type
Flight plan parsing failed, navigation log unavailable